Preview of NWS' New Version of Forecast
This preview is not operational and should not be used for support decisions.

Terminal Aerodrome Forecast (TAF)

Issued by National Weather Service (NWS)

                            
000
FTUS42 KCAE 171131
TAFOGB
TAF
KOGB 171131Z 1712/1812 VRB04KT P6SM SCT006
      TEMPO 1712/1714 5SM BR BKN006
     FM171700 08005KT P6SM VCTS BKN050CB
     FM180200 VRB03KT P6SM SCT100
     FM181000 VRB02KT P6SM BKN008=